Pea Ridge, Missouri
Current Conditions -  °F | °C
As of 5:35 PM on Monday 20 Oct 2014 (Local Time) from KFYG Reporting Station
Clear Clear  
Wind Chill: 21°   Ceiling: Unl
Heat Index: 21°   Visibility: 10mi
Dew Point:   Wind: 8mph
Humidity: 35%   Direction: 330°NNW
Pressure: 29.96"   Gusts: NA
Location:  38.2643°N, 91.1348°W
Report Text: KFYG 202235Z AUTO 33007KT 10SM CLR 21/05 A2996 RMK AO2
Loading
Personal Weather Stations






























Interactive Weather Map
Tropical Storm Tracking
New forecast layout! Learn more

10-Day Weather Forecast

Advertisements
Track Severe Weather on mobile